sensor_id;sensor_type;location;lat;lon;timestamp;P1;durP1;ratioP1;P2;durP2;ratioP2
20245;SDS011;10281;54.406;18.556;2023-11-19T00:01:05;24.50;;;16.17;;
20245;SDS011;10281;54.406;18.556;2023-11-19T00:03:32;26.47;;;17.47;;
20245;SDS011;10281;54.406;18.556;2023-11-19T00:05:59;25.97;;;16.50;;
20245;SDS011;10281;54.406;18.556;2023-11-19T00:08:25;27.73;;;17.47;;
20245;SDS011;10281;54.406;18.556;2023-11-19T00:10:52;28.40;;;17.97;;
20245;SDS011;10281;54.406;18.556;2023-11-19T00:13:19;29.67;;;18.67;;
20245;SDS011;10281;54.406;18.556;2023-11-19T00:15:46;27.20;;;18.07;;
20245;SDS011;10281;54.406;18.556;2023-11-19T00:18:13;30.23;;;19.00;;
20245;SDS011;10281;54.406;18.556;2023-11-19T00:20:39;29.17;;;18.40;;
20245;SDS011;10281;54.406;18.556;2023-11-19T00:23:07;28.33;;;18.57;;
20245;SDS011;10281;54.406;18.556;2023-11-19T00:25:33;26.60;;;17.27;;
20245;SDS011;10281;54.406;18.556;2023-11-19T00:28:00;26.20;;;16.10;;
20245;SDS011;10281;54.406;18.556;2023-11-19T00:30:26;24.70;;;16.20;;
20245;SDS011;10281;54.406;18.556;2023-11-19T00:32:53;23.43;;;16.10;;
20245;SDS011;10281;54.406;18.556;2023-11-19T00:35:20;24.43;;;16.43;;
20245;SDS011;10281;54.406;18.556;2023-11-19T00:37:46;24.37;;;16.60;;
20245;SDS011;10281;54.406;18.556;2023-11-19T00:40:14;23.37;;;15.47;;
20245;SDS011;10281;54.406;18.556;2023-11-19T00:42:42;23.93;;;16.23;;
20245;SDS011;10281;54.406;18.556;2023-11-19T00:45:09;24.63;;;15.97;;
20245;SDS011;10281;54.406;18.556;2023-11-19T00:47:38;24.93;;;15.90;;
20245;SDS011;10281;54.406;18.556;2023-11-19T00:50:05;25.43;;;15.10;;
20245;SDS011;10281;54.406;18.556;2023-11-19T00:52:35;22.50;;;15.67;;
20245;SDS011;10281;54.406;18.556;2023-11-19T00:55:03;24.67;;;16.70;;
20245;SDS011;10281;54.406;18.556;2023-11-19T00:57:31;26.30;;;16.97;;
20245;SDS011;10281;54.406;18.556;2023-11-19T00:59:58;24.83;;;16.53;;
20245;SDS011;10281;54.406;18.556;2023-11-19T01:02:25;26.13;;;17.03;;
20245;SDS011;10281;54.406;18.556;2023-11-19T01:04:52;26.60;;;16.63;;
20245;SDS011;10281;54.406;18.556;2023-11-19T01:07:18;24.20;;;16.27;;
20245;SDS011;10281;54.406;18.556;2023-11-19T01:09:47;27.40;;;16.77;;
20245;SDS011;10281;54.406;18.556;2023-11-19T01:12:13;25.27;;;16.80;;
20245;SDS011;10281;54.406;18.556;2023-11-19T01:14:40;25.63;;;16.87;;
20245;SDS011;10281;54.406;18.556;2023-11-19T01:17:07;26.43;;;15.93;;
20245;SDS011;10281;54.406;18.556;2023-11-19T01:19:34;25.07;;;16.23;;
20245;SDS011;10281;54.406;18.556;2023-11-19T01:22:01;24.87;;;16.87;;
20245;SDS011;10281;54.406;18.556;2023-11-19T01:24:27;25.30;;;17.23;;
20245;SDS011;10281;54.406;18.556;2023-11-19T01:26:56;28.13;;;17.77;;
20245;SDS011;10281;54.406;18.556;2023-11-19T01:29:25;27.20;;;16.93;;
20245;SDS011;10281;54.406;18.556;2023-11-19T01:31:52;23.07;;;15.67;;
20245;SDS011;10281;54.406;18.556;2023-11-19T01:34:18;24.17;;;17.17;;
20245;SDS011;10281;54.406;18.556;2023-11-19T01:36:46;24.33;;;16.00;;
20245;SDS011;10281;54.406;18.556;2023-11-19T01:39:14;23.63;;;15.60;;
20245;SDS011;10281;54.406;18.556;2023-11-19T01:41:42;25.67;;;16.43;;
20245;SDS011;10281;54.406;18.556;2023-11-19T01:44:09;21.33;;;14.83;;
20245;SDS011;10281;54.406;18.556;2023-11-19T01:46:38;23.90;;;15.37;;
20245;SDS011;10281;54.406;18.556;2023-11-19T01:49:08;24.87;;;15.97;;
20245;SDS011;10281;54.406;18.556;2023-11-19T01:51:35;24.33;;;15.87;;
20245;SDS011;10281;54.406;18.556;2023-11-19T01:54:02;22.87;;;15.83;;
20245;SDS011;10281;54.406;18.556;2023-11-19T01:56:29;25.00;;;16.33;;
20245;SDS011;10281;54.406;18.556;2023-11-19T01:58:57;21.83;;;14.63;;
20245;SDS011;10281;54.406;18.556;2023-11-19T02:01:25;25.53;;;15.77;;
20245;SDS011;10281;54.406;18.556;2023-11-19T02:03:52;19.63;;;14.17;;
20245;SDS011;10281;54.406;18.556;2023-11-19T02:06:19;22.10;;;13.27;;
20245;SDS011;10281;54.406;18.556;2023-11-19T02:08:46;20.30;;;13.43;;
20245;SDS011;10281;54.406;18.556;2023-11-19T02:11:12;20.50;;;12.87;;
20245;SDS011;10281;54.406;18.556;2023-11-19T02:13:39;21.83;;;13.40;;
20245;SDS011;10281;54.406;18.556;2023-11-19T02:16:07;18.27;;;12.70;;
20245;SDS011;10281;54.406;18.556;2023-11-19T02:18:36;17.73;;;11.47;;
20245;SDS011;10281;54.406;18.556;2023-11-19T02:21:02;20.87;;;12.73;;
20245;SDS011;10281;54.406;18.556;2023-11-19T02:23:30;19.30;;;12.37;;
20245;SDS011;10281;54.406;18.556;2023-11-19T02:26:02;15.93;;;11.70;;
20245;SDS011;10281;54.406;18.556;2023-11-19T02:28:32;16.73;;;11.40;;
20245;SDS011;10281;54.406;18.556;2023-11-19T02:30:59;17.80;;;11.87;;
20245;SDS011;10281;54.406;18.556;2023-11-19T02:33:26;15.40;;;10.80;;
20245;SDS011;10281;54.406;18.556;2023-11-19T02:35:53;17.67;;;10.90;;
20245;SDS011;10281;54.406;18.556;2023-11-19T02:38:19;17.20;;;10.93;;
20245;SDS011;10281;54.406;18.556;2023-11-19T02:40:47;16.27;;;10.63;;
20245;SDS011;10281;54.406;18.556;2023-11-19T02:43:15;16.13;;;11.10;;
20245;SDS011;10281;54.406;18.556;2023-11-19T02:45:41;19.00;;;11.73;;
20245;SDS011;10281;54.406;18.556;2023-11-19T02:48:10;17.30;;;10.60;;
20245;SDS011;10281;54.406;18.556;2023-11-19T02:50:37;13.70;;;10.07;;
20245;SDS011;10281;54.406;18.556;2023-11-19T02:53:03;15.77;;;10.30;;
20245;SDS011;10281;54.406;18.556;2023-11-19T02:55:32;14.70;;;10.17;;
20245;SDS011;10281;54.406;18.556;2023-11-19T02:58:00;14.87;;;9.93;;
20245;SDS011;10281;54.406;18.556;2023-11-19T03:00:29;16.30;;;10.30;;
20245;SDS011;10281;54.406;18.556;2023-11-19T03:03:00;17.03;;;10.33;;
20245;SDS011;10281;54.406;18.556;2023-11-19T03:05:33;13.30;;;9.23;;
20245;SDS011;10281;54.406;18.556;2023-11-19T03:08:00;13.13;;;9.40;;
20245;SDS011;10281;54.406;18.556;2023-11-19T03:10:27;13.57;;;9.77;;
20245;SDS011;10281;54.406;18.556;2023-11-19T03:12:54;14.10;;;9.77;;
20245;SDS011;10281;54.406;18.556;2023-11-19T03:15:22;12.70;;;9.33;;
20245;SDS011;10281;54.406;18.556;2023-11-19T03:17:49;13.67;;;9.13;;
20245;SDS011;10281;54.406;18.556;2023-11-19T03:20:15;15.43;;;10.07;;
20245;SDS011;10281;54.406;18.556;2023-11-19T03:22:42;13.93;;;9.13;;
20245;SDS011;10281;54.406;18.556;2023-11-19T03:25:09;15.23;;;9.77;;
20245;SDS011;10281;54.406;18.556;2023-11-19T03:27:37;14.77;;;9.77;;
20245;SDS011;10281;54.406;18.556;2023-11-19T03:30:06;16.20;;;10.03;;
20245;SDS011;10281;54.406;18.556;2023-11-19T03:32:35;14.63;;;10.43;;
20245;SDS011;10281;54.406;18.556;2023-11-19T03:35:02;15.73;;;10.80;;
20245;SDS011;10281;54.406;18.556;2023-11-19T03:37:30;14.80;;;10.27;;
20245;SDS011;10281;54.406;18.556;2023-11-19T03:39:57;15.57;;;10.60;;
20245;SDS011;10281;54.406;18.556;2023-11-19T03:42:25;15.53;;;10.50;;
20245;SDS011;10281;54.406;18.556;2023-11-19T03:44:53;15.67;;;10.23;;
20245;SDS011;10281;54.406;18.556;2023-11-19T03:47:20;18.30;;;11.40;;
20245;SDS011;10281;54.406;18.556;2023-11-19T03:49:47;17.53;;;11.37;;
20245;SDS011;10281;54.406;18.556;2023-11-19T03:52:16;17.53;;;12.00;;
20245;SDS011;10281;54.406;18.556;2023-11-19T03:54:43;18.67;;;12.27;;
20245;SDS011;10281;54.406;18.556;2023-11-19T03:57:11;16.97;;;11.33;;
20245;SDS011;10281;54.406;18.556;2023-11-19T03:59:39;16.43;;;11.80;;
20245;SDS011;10281;54.406;18.556;2023-11-19T04:02:06;19.30;;;12.27;;
20245;SDS011;10281;54.406;18.556;2023-11-19T04:04:32;20.33;;;12.70;;
20245;SDS011;10281;54.406;18.556;2023-11-19T04:07:00;19.57;;;13.07;;
20245;SDS011;10281;54.406;18.556;2023-11-19T04:09:28;19.53;;;12.50;;
20245;SDS011;10281;54.406;18.556;2023-11-19T04:11:56;19.60;;;12.97;;
20245;SDS011;10281;54.406;18.556;2023-11-19T04:14:23;17.93;;;12.97;;
20245;SDS011;10281;54.406;18.556;2023-11-19T04:16:50;21.90;;;13.93;;
20245;SDS011;10281;54.406;18.556;2023-11-19T04:19:17;21.93;;;13.93;;
20245;SDS011;10281;54.406;18.556;2023-11-19T04:21:45;19.50;;;13.17;;
20245;SDS011;10281;54.406;18.556;2023-11-19T04:24:12;22.70;;;14.83;;
20245;SDS011;10281;54.406;18.556;2023-11-19T04:26:40;23.47;;;14.00;;
20245;SDS011;10281;54.406;18.556;2023-11-19T04:29:09;21.33;;;13.33;;
20245;SDS011;10281;54.406;18.556;2023-11-19T04:31:37;22.13;;;14.13;;
20245;SDS011;10281;54.406;18.556;2023-11-19T04:34:03;22.87;;;14.23;;
20245;SDS011;10281;54.406;18.556;2023-11-19T04:36:30;21.33;;;13.90;;
20245;SDS011;10281;54.406;18.556;2023-11-19T04:38:57;20.50;;;13.53;;
20245;SDS011;10281;54.406;18.556;2023-11-19T04:41:25;21.97;;;14.10;;
20245;SDS011;10281;54.406;18.556;2023-11-19T04:43:53;21.70;;;14.37;;
20245;SDS011;10281;54.406;18.556;2023-11-19T04:46:20;21.13;;;12.80;;
20245;SDS011;10281;54.406;18.556;2023-11-19T04:48:47;21.40;;;13.47;;
20245;SDS011;10281;54.406;18.556;2023-11-19T04:51:14;22.33;;;14.10;;
20245;SDS011;10281;54.406;18.556;2023-11-19T04:53:40;21.30;;;12.60;;
20245;SDS011;10281;54.406;18.556;2023-11-19T04:56:07;20.73;;;13.10;;
20245;SDS011;10281;54.406;18.556;2023-11-19T04:58:35;17.83;;;12.57;;
20245;SDS011;10281;54.406;18.556;2023-11-19T05:01:03;20.77;;;13.03;;
20245;SDS011;10281;54.406;18.556;2023-11-19T05:03:30;18.97;;;12.83;;
20245;SDS011;10281;54.406;18.556;2023-11-19T05:05:58;21.07;;;12.63;;
20245;SDS011;10281;54.406;18.556;2023-11-19T05:08:24;16.27;;;12.20;;
20245;SDS011;10281;54.406;18.556;2023-11-19T05:10:51;17.70;;;11.70;;
20245;SDS011;10281;54.406;18.556;2023-11-19T05:13:18;18.13;;;12.53;;
20245;SDS011;10281;54.406;18.556;2023-11-19T05:15:44;17.27;;;11.43;;
20245;SDS011;10281;54.406;18.556;2023-11-19T05:18:11;19.30;;;12.10;;
20245;SDS011;10281;54.406;18.556;2023-11-19T05:20:38;14.57;;;10.67;;
20245;SDS011;10281;54.406;18.556;2023-11-19T05:23:04;16.37;;;11.00;;
20245;SDS011;10281;54.406;18.556;2023-11-19T05:25:31;17.13;;;10.60;;
20245;SDS011;10281;54.406;18.556;2023-11-19T05:27:57;15.43;;;11.27;;
20245;SDS011;10281;54.406;18.556;2023-11-19T05:30:24;18.73;;;11.97;;
20245;SDS011;10281;54.406;18.556;2023-11-19T05:32:50;17.03;;;11.30;;
20245;SDS011;10281;54.406;18.556;2023-11-19T05:35:17;16.33;;;11.47;;
20245;SDS011;10281;54.406;18.556;2023-11-19T05:37:44;17.27;;;12.00;;
20245;SDS011;10281;54.406;18.556;2023-11-19T05:40:10;17.97;;;12.03;;
20245;SDS011;10281;54.406;18.556;2023-11-19T05:42:40;19.53;;;12.13;;
20245;SDS011;10281;54.406;18.556;2023-11-19T05:45:08;18.33;;;12.17;;
20245;SDS011;10281;54.406;18.556;2023-11-19T05:47:37;16.13;;;11.67;;
20245;SDS011;10281;54.406;18.556;2023-11-19T05:50:04;18.03;;;12.20;;
20245;SDS011;10281;54.406;18.556;2023-11-19T05:52:31;17.73;;;12.30;;
20245;SDS011;10281;54.406;18.556;2023-11-19T05:55:00;19.90;;;11.87;;
20245;SDS011;10281;54.406;18.556;2023-11-19T05:57:31;18.47;;;12.30;;
20245;SDS011;10281;54.406;18.556;2023-11-19T06:00:00;19.93;;;13.03;;
20245;SDS011;10281;54.406;18.556;2023-11-19T06:02:26;22.40;;;14.23;;
20245;SDS011;10281;54.406;18.556;2023-11-19T06:04:53;19.20;;;11.93;;
20245;SDS011;10281;54.406;18.556;2023-11-19T06:07:20;18.97;;;12.50;;
20245;SDS011;10281;54.406;18.556;2023-11-19T06:09:46;18.53;;;12.10;;
20245;SDS011;10281;54.406;18.556;2023-11-19T06:12:13;17.47;;;12.30;;
20245;SDS011;10281;54.406;18.556;2023-11-19T06:14:40;18.43;;;12.43;;
20245;SDS011;10281;54.406;18.556;2023-11-19T06:17:06;17.23;;;11.67;;
20245;SDS011;10281;54.406;18.556;2023-11-19T06:19:34;20.63;;;14.13;;
20245;SDS011;10281;54.406;18.556;2023-11-19T06:22:00;20.60;;;13.43;;
20245;SDS011;10281;54.406;18.556;2023-11-19T06:24:27;24.03;;;15.57;;
20245;SDS011;10281;54.406;18.556;2023-11-19T06:26:53;18.63;;;11.40;;
20245;SDS011;10281;54.406;18.556;2023-11-19T06:29:20;17.73;;;12.30;;
20245;SDS011;10281;54.406;18.556;2023-11-19T06:31:47;17.13;;;11.37;;
20245;SDS011;10281;54.406;18.556;2023-11-19T06:34:14;18.03;;;11.93;;
20245;SDS011;10281;54.406;18.556;2023-11-19T06:36:41;19.73;;;11.97;;
20245;SDS011;10281;54.406;18.556;2023-11-19T06:39:09;18.13;;;11.77;;
20245;SDS011;10281;54.406;18.556;2023-11-19T06:41:38;18.37;;;12.30;;
20245;SDS011;10281;54.406;18.556;2023-11-19T06:44:04;19.50;;;12.23;;
20245;SDS011;10281;54.406;18.556;2023-11-19T06:46:31;18.87;;;12.73;;
20245;SDS011;10281;54.406;18.556;2023-11-19T06:48:58;17.53;;;12.27;;
20245;SDS011;10281;54.406;18.556;2023-11-19T06:51:25;21.67;;;13.60;;
20245;SDS011;10281;54.406;18.556;2023-11-19T06:53:52;20.77;;;13.03;;
20245;SDS011;10281;54.406;18.556;2023-11-19T06:56:20;21.83;;;12.90;;
20245;SDS011;10281;54.406;18.556;2023-11-19T06:58:47;23.83;;;13.63;;
20245;SDS011;10281;54.406;18.556;2023-11-19T07:01:15;18.67;;;12.93;;
20245;SDS011;10281;54.406;18.556;2023-11-19T07:03:44;21.60;;;13.17;;
20245;SDS011;10281;54.406;18.556;2023-11-19T07:06:12;20.50;;;13.27;;
20245;SDS011;10281;54.406;18.556;2023-11-19T07:08:41;21.23;;;13.27;;
20245;SDS011;10281;54.406;18.556;2023-11-19T07:11:10;21.53;;;12.67;;
20245;SDS011;10281;54.406;18.556;2023-11-19T07:13:37;19.33;;;12.90;;
20245;SDS011;10281;54.406;18.556;2023-11-19T07:16:04;19.37;;;13.20;;
20245;SDS011;10281;54.406;18.556;2023-11-19T07:18:34;19.77;;;13.20;;
20245;SDS011;10281;54.406;18.556;2023-11-19T07:21:01;20.57;;;13.00;;
20245;SDS011;10281;54.406;18.556;2023-11-19T07:23:28;21.53;;;13.00;;
20245;SDS011;10281;54.406;18.556;2023-11-19T07:25:55;17.23;;;12.40;;
20245;SDS011;10281;54.406;18.556;2023-11-19T07:28:22;23.10;;;12.47;;
20245;SDS011;10281;54.406;18.556;2023-11-19T07:30:48;20.67;;;13.63;;
20245;SDS011;10281;54.406;18.556;2023-11-19T07:33:15;20.10;;;11.80;;
20245;SDS011;10281;54.406;18.556;2023-11-19T07:35:42;17.73;;;11.97;;
20245;SDS011;10281;54.406;18.556;2023-11-19T07:38:09;19.40;;;12.17;;
20245;SDS011;10281;54.406;18.556;2023-11-19T07:40:36;17.70;;;12.27;;
20245;SDS011;10281;54.406;18.556;2023-11-19T07:43:02;18.17;;;12.33;;
20245;SDS011;10281;54.406;18.556;2023-11-19T07:45:29;18.40;;;12.87;;
20245;SDS011;10281;54.406;18.556;2023-11-19T07:47:55;21.33;;;12.70;;
20245;SDS011;10281;54.406;18.556;2023-11-19T07:50:22;20.73;;;12.93;;
20245;SDS011;10281;54.406;18.556;2023-11-19T07:52:50;19.47;;;12.80;;
20245;SDS011;10281;54.406;18.556;2023-11-19T07:55:17;22.10;;;13.37;;
20245;SDS011;10281;54.406;18.556;2023-11-19T07:57:43;20.47;;;12.87;;
20245;SDS011;10281;54.406;18.556;2023-11-19T08:00:10;18.73;;;13.00;;
20245;SDS011;10281;54.406;18.556;2023-11-19T08:02:38;17.77;;;11.50;;
20245;SDS011;10281;54.406;18.556;2023-11-19T08:05:04;17.83;;;12.10;;
20245;SDS011;10281;54.406;18.556;2023-11-19T08:07:31;18.10;;;12.43;;
20245;SDS011;10281;54.406;18.556;2023-11-19T08:09:58;20.33;;;11.57;;
20245;SDS011;10281;54.406;18.556;2023-11-19T08:12:25;16.77;;;11.57;;
20245;SDS011;10281;54.406;18.556;2023-11-19T08:14:52;16.67;;;11.27;;
20245;SDS011;10281;54.406;18.556;2023-11-19T08:17:18;17.53;;;11.67;;
20245;SDS011;10281;54.406;18.556;2023-11-19T08:19:45;15.03;;;10.73;;
20245;SDS011;10281;54.406;18.556;2023-11-19T08:22:12;15.37;;;10.87;;
20245;SDS011;10281;54.406;18.556;2023-11-19T08:24:38;15.30;;;11.57;;
20245;SDS011;10281;54.406;18.556;2023-11-19T08:27:05;18.13;;;11.87;;
20245;SDS011;10281;54.406;18.556;2023-11-19T08:29:31;14.50;;;10.63;;
20245;SDS011;10281;54.406;18.556;2023-11-19T08:31:59;14.50;;;9.93;;
20245;SDS011;10281;54.406;18.556;2023-11-19T08:34:29;13.83;;;10.10;;
20245;SDS011;10281;54.406;18.556;2023-11-19T08:36:56;15.67;;;10.80;;
20245;SDS011;10281;54.406;18.556;2023-11-19T08:39:23;14.93;;;10.53;;
20245;SDS011;10281;54.406;18.556;2023-11-19T08:41:49;14.30;;;10.50;;
20245;SDS011;10281;54.406;18.556;2023-11-19T08:44:16;17.07;;;12.07;;
20245;SDS011;10281;54.406;18.556;2023-11-19T08:46:46;15.13;;;10.20;;
20245;SDS011;10281;54.406;18.556;2023-11-19T08:49:15;15.57;;;10.93;;
20245;SDS011;10281;54.406;18.556;2023-11-19T08:51:42;15.37;;;10.93;;
20245;SDS011;10281;54.406;18.556;2023-11-19T08:54:09;16.80;;;10.67;;
20245;SDS011;10281;54.406;18.556;2023-11-19T08:56:36;14.40;;;10.33;;
20245;SDS011;10281;54.406;18.556;2023-11-19T08:59:05;16.90;;;10.60;;
20245;SDS011;10281;54.406;18.556;2023-11-19T09:01:31;15.63;;;10.73;;
20245;SDS011;10281;54.406;18.556;2023-11-19T09:03:58;18.13;;;13.40;;
20245;SDS011;10281;54.406;18.556;2023-11-19T09:06:24;15.40;;;10.70;;
20245;SDS011;10281;54.406;18.556;2023-11-19T09:08:52;17.27;;;10.97;;
20245;SDS011;10281;54.406;18.556;2023-11-19T09:11:18;15.33;;;9.83;;
20245;SDS011;10281;54.406;18.556;2023-11-19T09:13:45;15.13;;;9.90;;
20245;SDS011;10281;54.406;18.556;2023-11-19T09:16:12;14.50;;;10.03;;
20245;SDS011;10281;54.406;18.556;2023-11-19T09:18:38;14.67;;;10.73;;
20245;SDS011;10281;54.406;18.556;2023-11-19T09:21:05;15.07;;;10.30;;
20245;SDS011;10281;54.406;18.556;2023-11-19T09:23:32;16.07;;;10.67;;
20245;SDS011;10281;54.406;18.556;2023-11-19T09:26:01;16.67;;;11.50;;
20245;SDS011;10281;54.406;18.556;2023-11-19T09:28:27;15.70;;;10.70;;
20245;SDS011;10281;54.406;18.556;2023-11-19T09:30:54;17.43;;;11.27;;
20245;SDS011;10281;54.406;18.556;2023-11-19T09:33:21;16.13;;;11.20;;
20245;SDS011;10281;54.406;18.556;2023-11-19T09:35:47;15.60;;;11.43;;
20245;SDS011;10281;54.406;18.556;2023-11-19T09:38:15;14.80;;;10.87;;
20245;SDS011;10281;54.406;18.556;2023-11-19T09:40:42;14.87;;;11.30;;
20245;SDS011;10281;54.406;18.556;2023-11-19T09:43:09;15.13;;;11.00;;
20245;SDS011;10281;54.406;18.556;2023-11-19T09:45:42;15.90;;;10.57;;
20245;SDS011;10281;54.406;18.556;2023-11-19T09:48:20;15.97;;;11.20;;
20245;SDS011;10281;54.406;18.556;2023-11-19T09:50:49;17.93;;;11.90;;
20245;SDS011;10281;54.406;18.556;2023-11-19T09:53:17;16.17;;;10.73;;
20245;SDS011;10281;54.406;18.556;2023-11-19T09:55:45;15.77;;;11.17;;
20245;SDS011;10281;54.406;18.556;2023-11-19T09:58:13;17.27;;;11.07;;
20245;SDS011;10281;54.406;18.556;2023-11-19T10:00:41;14.73;;;10.67;;
20245;SDS011;10281;54.406;18.556;2023-11-19T10:03:08;16.40;;;11.03;;
20245;SDS011;10281;54.406;18.556;2023-11-19T10:05:37;16.40;;;11.47;;
20245;SDS011;10281;54.406;18.556;2023-11-19T10:08:05;17.23;;;12.20;;
20245;SDS011;10281;54.406;18.556;2023-11-19T10:10:33;15.30;;;11.37;;
20245;SDS011;10281;54.406;18.556;2023-11-19T10:13:00;19.33;;;12.23;;
20245;SDS011;10281;54.406;18.556;2023-11-19T10:15:27;16.77;;;11.50;;
20245;SDS011;10281;54.406;18.556;2023-11-19T10:17:55;16.70;;;12.27;;
20245;SDS011;10281;54.406;18.556;2023-11-19T10:20:23;18.40;;;12.37;;
20245;SDS011;10281;54.406;18.556;2023-11-19T10:22:53;19.80;;;13.60;;
20245;SDS011;10281;54.406;18.556;2023-11-19T10:25:22;18.73;;;13.33;;
20245;SDS011;10281;54.406;18.556;2023-11-19T10:27:51;17.50;;;13.13;;
20245;SDS011;10281;54.406;18.556;2023-11-19T10:30:20;18.37;;;13.37;;
20245;SDS011;10281;54.406;18.556;2023-11-19T10:35:26;18.53;;;13.03;;
20245;SDS011;10281;54.406;18.556;2023-11-19T10:37:53;18.70;;;13.37;;
20245;SDS011;10281;54.406;18.556;2023-11-19T10:40:20;20.07;;;13.50;;
20245;SDS011;10281;54.406;18.556;2023-11-19T10:42:46;19.97;;;14.23;;
20245;SDS011;10281;54.406;18.556;2023-11-19T10:45:21;22.37;;;14.53;;
20245;SDS011;10281;54.406;18.556;2023-11-19T10:47:50;23.10;;;15.23;;
20245;SDS011;10281;54.406;18.556;2023-11-19T10:50:17;19.93;;;14.27;;
20245;SDS011;10281;54.406;18.556;2023-11-19T10:52:44;21.00;;;14.30;;
20245;SDS011;10281;54.406;18.556;2023-11-19T10:55:13;21.70;;;13.60;;
20245;SDS011;10281;54.406;18.556;2023-11-19T10:57:43;23.17;;;14.67;;
20245;SDS011;10281;54.406;18.556;2023-11-19T11:00:13;22.77;;;15.07;;
20245;SDS011;10281;54.406;18.556;2023-11-19T11:02:44;22.27;;;15.33;;
20245;SDS011;10281;54.406;18.556;2023-11-19T11:05:13;22.93;;;14.83;;
20245;SDS011;10281;54.406;18.556;2023-11-19T11:07:41;22.77;;;15.50;;
20245;SDS011;10281;54.406;18.556;2023-11-19T11:10:10;24.43;;;15.07;;
20245;SDS011;10281;54.406;18.556;2023-11-19T11:12:39;23.30;;;15.83;;
20245;SDS011;10281;54.406;18.556;2023-11-19T11:15:08;24.97;;;15.70;;
20245;SDS011;10281;54.406;18.556;2023-11-19T11:17:38;23.27;;;15.50;;
20245;SDS011;10281;54.406;18.556;2023-11-19T11:20:08;25.47;;;15.07;;
20245;SDS011;10281;54.406;18.556;2023-11-19T11:22:42;26.33;;;16.77;;
20245;SDS011;10281;54.406;18.556;2023-11-19T11:25:21;27.53;;;17.13;;
20245;SDS011;10281;54.406;18.556;2023-11-19T11:30:31;27.63;;;16.23;;
20245;SDS011;10281;54.406;18.556;2023-11-19T11:33:05;27.33;;;17.23;;
20245;SDS011;10281;54.406;18.556;2023-11-19T11:36:01;26.03;;;17.47;;
20245;SDS011;10281;54.406;18.556;2023-11-19T11:38:31;27.77;;;16.83;;
20245;SDS011;10281;54.406;18.556;2023-11-19T11:41:33;28.53;;;17.83;;
20245;SDS011;10281;54.406;18.556;2023-11-19T11:43:49;31.27;;;19.13;;
20245;SDS011;10281;54.406;18.556;2023-11-19T11:49:22;31.37;;;20.15;;
20245;SDS011;10281;54.406;18.556;2023-11-19T11:51:57;31.03;;;18.90;;
20245;SDS011;10281;54.406;18.556;2023-11-19T11:54:25;32.30;;;19.40;;
20245;SDS011;10281;54.406;18.556;2023-11-19T11:59:36;30.80;;;19.50;;
20245;SDS011;10281;54.406;18.556;2023-11-19T12:02:05;31.50;;;18.03;;
20245;SDS011;10281;54.406;18.556;2023-11-19T12:04:34;31.17;;;20.57;;
20245;SDS011;10281;54.406;18.556;2023-11-19T12:07:06;29.63;;;18.43;;
20245;SDS011;10281;54.406;18.556;2023-11-19T12:09:36;30.73;;;18.53;;
20245;SDS011;10281;54.406;18.556;2023-11-19T12:12:11;30.03;;;19.10;;
20245;SDS011;10281;54.406;18.556;2023-11-19T12:17:41;38.23;;;23.07;;
20245;SDS011;10281;54.406;18.556;2023-11-19T12:20:12;32.20;;;19.33;;
20245;SDS011;10281;54.406;18.556;2023-11-19T12:22:40;31.00;;;19.53;;
20245;SDS011;10281;54.406;18.556;2023-11-19T12:25:08;33.80;;;19.97;;
20245;SDS011;10281;54.406;18.556;2023-11-19T12:27:39;32.97;;;18.17;;
20245;SDS011;10281;54.406;18.556;2023-11-19T12:30:07;33.93;;;20.43;;
20245;SDS011;10281;54.406;18.556;2023-11-19T12:32:38;34.97;;;20.27;;
20245;SDS011;10281;54.406;18.556;2023-11-19T12:35:06;38.83;;;21.13;;
20245;SDS011;10281;54.406;18.556;2023-11-19T12:37:38;35.17;;;20.63;;
20245;SDS011;10281;54.406;18.556;2023-11-19T12:40:15;36.17;;;21.57;;
20245;SDS011;10281;54.406;18.556;2023-11-19T12:42:44;37.83;;;22.17;;
20245;SDS011;10281;54.406;18.556;2023-11-19T12:45:11;39.27;;;20.53;;
20245;SDS011;10281;54.406;18.556;2023-11-19T12:47:39;38.33;;;21.77;;
20245;SDS011;10281;54.406;18.556;2023-11-19T12:50:07;39.23;;;22.20;;
20245;SDS011;10281;54.406;18.556;2023-11-19T12:52:35;33.37;;;19.77;;
20245;SDS011;10281;54.406;18.556;2023-11-19T12:55:03;38.03;;;21.77;;
20245;SDS011;10281;54.406;18.556;2023-11-19T12:57:36;38.57;;;21.77;;
20245;SDS011;10281;54.406;18.556;2023-11-19T13:00:04;37.67;;;21.50;;
20245;SDS011;10281;54.406;18.556;2023-11-19T13:05:22;37.67;;;22.37;;
20245;SDS011;10281;54.406;18.556;2023-11-19T13:10:26;40.77;;;22.27;;
20245;SDS011;10281;54.406;18.556;2023-11-19T13:13:08;41.30;;;23.17;;
20245;SDS011;10281;54.406;18.556;2023-11-19T13:15:35;42.97;;;23.37;;
20245;SDS011;10281;54.406;18.556;2023-11-19T13:18:02;39.53;;;23.40;;
20245;SDS011;10281;54.406;18.556;2023-11-19T13:20:29;40.43;;;22.20;;
20245;SDS011;10281;54.406;18.556;2023-11-19T13:22:57;37.97;;;23.47;;
20245;SDS011;10281;54.406;18.556;2023-11-19T13:25:26;40.40;;;23.50;;
20245;SDS011;10281;54.406;18.556;2023-11-19T13:27:54;44.77;;;24.90;;
20245;SDS011;10281;54.406;18.556;2023-11-19T13:30:21;42.87;;;23.67;;
20245;SDS011;10281;54.406;18.556;2023-11-19T13:32:48;43.27;;;24.17;;
20245;SDS011;10281;54.406;18.556;2023-11-19T13:35:16;40.73;;;23.60;;
20245;SDS011;10281;54.406;18.556;2023-11-19T13:37:44;44.83;;;23.60;;
20245;SDS011;10281;54.406;18.556;2023-11-19T13:40:12;39.33;;;23.60;;
20245;SDS011;10281;54.406;18.556;2023-11-19T13:42:41;42.27;;;23.20;;
20245;SDS011;10281;54.406;18.556;2023-11-19T13:45:09;41.17;;;22.87;;
20245;SDS011;10281;54.406;18.556;2023-11-19T13:47:39;41.57;;;23.03;;
20245;SDS011;10281;54.406;18.556;2023-11-19T13:50:11;41.10;;;23.63;;
20245;SDS011;10281;54.406;18.556;2023-11-19T13:52:39;46.27;;;24.67;;
20245;SDS011;10281;54.406;18.556;2023-11-19T13:55:09;43.73;;;24.67;;
20245;SDS011;10281;54.406;18.556;2023-11-19T13:57:36;42.77;;;23.20;;
20245;SDS011;10281;54.406;18.556;2023-11-19T14:00:05;42.50;;;24.57;;
20245;SDS011;10281;54.406;18.556;2023-11-19T14:02:40;39.27;;;22.97;;
20245;SDS011;10281;54.406;18.556;2023-11-19T14:05:07;42.83;;;24.70;;
20245;SDS011;10281;54.406;18.556;2023-11-19T14:07:33;45.67;;;25.10;;
20245;SDS011;10281;54.406;18.556;2023-11-19T14:10:00;41.30;;;23.10;;
20245;SDS011;10281;54.406;18.556;2023-11-19T14:12:27;44.20;;;23.73;;
20245;SDS011;10281;54.406;18.556;2023-11-19T14:14:54;53.63;;;32.00;;
20245;SDS011;10281;54.406;18.556;2023-11-19T14:17:20;38.83;;;22.83;;
20245;SDS011;10281;54.406;18.556;2023-11-19T14:19:47;37.27;;;22.23;;
20245;SDS011;10281;54.406;18.556;2023-11-19T14:22:13;45.63;;;24.40;;
20245;SDS011;10281;54.406;18.556;2023-11-19T14:24:40;43.40;;;25.17;;
20245;SDS011;10281;54.406;18.556;2023-11-19T14:27:09;65.73;;;38.87;;
20245;SDS011;10281;54.406;18.556;2023-11-19T14:29:36;48.70;;;28.50;;
20245;SDS011;10281;54.406;18.556;2023-11-19T14:32:03;44.70;;;23.50;;